Strona główna
METAR-TAF:

METAR-TAF

Lotnisko :

Concord, New Hampshire, Stany Zjednoczone

Szerokość geograficzna: 43-11-43N, Długość geograficzna: 071-30-04W, wysokość: 105 m

Aktualna obserwacja pogody

Raport powstał 55 minut temu, godzina 08:51 UTC
Cisza
Temperatura -3°C
Wilgotność 68%
Ciśnienie 1019 hPa
Widzialność: 16.1 km
bezchmurnie

METAR: KCON 220851Z AUTO 00000KT 10SM CLR M03/M08 A3009 RMK AO2 SLP194 T10281078 50006

czas: 05:46 (09:46 UTC)

Prognoza

Raport powstał 1 godzina i 1 minut temu, godzina 08:45 UTC
Prognoza ważna od 22 godzina 09 UTC do 23 godzina 06 UTC
Wiatr 7 kt od zachodnio-północny zachód
Widzialność: 10 km
Rozproszone chmury na wysokości 5000 ft

TAF: KCON 220845Z 2209/2306 30007KT P6SM SCT050

Obserwacja i prognoza pogody dla ponad 4000 lotnisk (raport METAR i TAF).

Dostępne stacje oznaczono żółtymi i czerwonymi punktami na mapie.

Najedź kursorem aby zobaczyć nazwę stacji.

Kliknij aby zobaczyć obserwacje i prognozy pogody.

Aby zmienić mapę: kliknij na zielony przycisk z czarnym krzyżykiem, aby powiększyć; na zielony przycisk z myślnikiem, aby pomniejszyć; na zielone strzałki, aby przejść do map sąsiednich.


METAR-TAF: